createdAt,value
2022-08-14T00:01:54.575Z,100935.00
2022-08-14T00:04:34.072Z,100934.13
2022-08-14T00:07:06.884Z,100925.09
2022-08-14T00:09:55.328Z,100923.34
2022-08-14T00:12:24.225Z,100927.03
2022-08-14T00:14:53.095Z,100914.41
2022-08-14T00:17:22.871Z,100924.50
2022-08-14T00:19:51.715Z,100927.31
2022-08-14T00:22:44.174Z,100938.41
2022-08-14T00:25:07.932Z,100917.59
2022-08-14T00:27:37.740Z,100912.16
2022-08-14T00:30:14.212Z,100922.00
2022-08-14T00:32:52.399Z,100913.72
2022-08-14T00:35:43.016Z,100926.81
2022-08-14T00:38:15.721Z,100915.56
2022-08-14T00:40:46.110Z,100913.66
2022-08-14T00:43:13.646Z,100915.41
2022-08-14T00:45:42.723Z,100913.56
2022-08-14T00:48:10.406Z,100903.53
2022-08-14T00:50:37.930Z,100908.00
2022-08-14T00:53:05.753Z,100896.25
2022-08-14T00:55:41.324Z,100899.84
2022-08-14T00:58:32.846Z,100880.84
2022-08-14T01:01:09.646Z,100884.63
2022-08-14T01:03:42.361Z,100892.78
2022-08-14T01:06:13.173Z,100878.31
2022-08-14T01:08:58.070Z,100874.63
2022-08-14T01:11:35.554Z,100872.88
2022-08-14T01:14:05.086Z,100872.81
2022-08-14T01:16:52.895Z,100870.94
2022-08-14T01:19:38.493Z,100875.41
2022-08-14T01:22:12.274Z,100865.50
2022-08-14T01:24:41.597Z,100872.69
2022-08-14T01:27:19.379Z,100866.38
2022-08-14T01:30:01.450Z,100858.34
2022-08-14T01:32:35.378Z,100853.97
2022-08-14T01:35:17.358Z,100855.06
2022-08-14T01:37:56.555Z,100865.91
2022-08-14T01:40:37.196Z,100853.34
2022-08-14T01:43:14.603Z,100858.91
2022-08-14T01:45:48.732Z,100858.13
2022-08-14T01:48:16.116Z,100864.16
2022-08-14T01:50:47.834Z,100866.78
2022-08-14T01:53:15.398Z,100863.19
2022-08-14T01:55:42.683Z,100865.09
2022-08-14T01:58:19.850Z,100857.97
2022-08-14T02:00:54.375Z,100865.31
2022-08-14T02:03:30.063Z,100857.38
2022-08-14T02:05:59.514Z,100856.59
2022-08-14T02:08:35.217Z,100860.25
2022-08-14T02:11:22.099Z,100855.81
2022-08-14T02:14:06.870Z,100846.13
2022-08-14T02:16:39.262Z,100848.06
2022-08-14T02:19:21.260Z,100842.84
2022-08-14T02:21:54.480Z,100843.88
2022-08-14T02:24:39.088Z,100846.72
2022-08-14T02:28:24.750Z,100851.34
2022-08-14T02:30:00.997Z,100845.34
2022-08-14T02:32:46.312Z,100841.88
2022-08-14T02:35:18.944Z,100840.31
2022-08-14T02:37:50.609Z,100838.75
2022-08-14T02:40:20.523Z,100842.63
2022-08-14T02:42:59.789Z,100849.13
2022-08-14T02:45:38.933Z,100835.81
2022-08-14T02:49:01.842Z,100830.59
2022-08-14T02:51:09.054Z,100833.59
2022-08-14T02:53:39.657Z,100832.41
2022-08-14T02:56:29.615Z,100829.59
2022-08-14T02:59:01.892Z,100833.44
2022-08-14T03:01:43.302Z,100828.22
2022-08-14T03:04:17.728Z,100822.69
2022-08-14T03:06:57.769Z,100815.34
2022-08-14T03:10:25.071Z,100810.94
2022-08-14T03:12:31.699Z,100807.47
2022-08-14T03:15:03.031Z,100811.16
2022-08-14T03:17:31.600Z,100815.78
2022-08-14T03:20:11.012Z,100825.00
2022-08-14T03:22:41.834Z,100818.88
2022-08-14T03:25:10.722Z,100812.66
2022-08-14T03:27:47.801Z,100815.59
2022-08-14T03:30:15.493Z,100814.97
2022-08-14T03:32:50.331Z,100817.84
2022-08-14T03:35:19.718Z,100817.13
2022-08-14T03:39:13.605Z,100819.09
2022-08-14T03:40:33.697Z,100814.69
2022-08-14T03:43:00.471Z,100811.22
2022-08-14T03:45:34.517Z,100804.06
2022-08-14T03:48:11.074Z,100806.09
2022-08-14T03:50:56.743Z,100795.50
2022-08-14T03:53:23.525Z,100802.78
2022-08-14T03:55:50.522Z,100801.13
2022-08-14T03:58:23.644Z,100795.78
2022-08-14T04:01:02.423Z,100795.09
2022-08-14T04:03:29.388Z,100792.56
2022-08-14T04:05:56.729Z,100780.94
2022-08-14T04:08:30.659Z,100791.00
2022-08-14T04:11:02.982Z,100784.00
2022-08-14T04:13:39.401Z,100774.25
2022-08-14T04:16:12.593Z,100775.19
2022-08-14T04:18:43.295Z,100772.69
2022-08-14T04:21:12.708Z,100770.06
2022-08-14T04:23:40.679Z,100775.66
2022-08-14T04:26:14.634Z,100779.31
2022-08-14T04:29:01.859Z,100768.69
2022-08-14T04:32:58.519Z,100760.56
2022-08-14T04:34:27.317Z,100752.44
2022-08-14T04:37:17.502Z,100755.91
2022-08-14T04:40:08.720Z,100756.84
2022-08-14T04:42:54.802Z,100754.06
2022-08-14T04:45:23.611Z,100752.22
2022-08-14T04:48:12.745Z,100748.56
2022-08-14T04:50:54.201Z,100747.50
2022-08-14T04:53:35.515Z,100746.47
2022-08-14T04:56:06.104Z,100740.75
2022-08-14T04:58:39.038Z,100740.31
2022-08-14T05:01:12.928Z,100739.75
2022-08-14T05:03:46.562Z,100748.31
2022-08-14T05:06:37.082Z,100741.38
2022-08-14T05:09:00.709Z,100746.16
2022-08-14T05:11:28.091Z,100741.19
2022-08-14T05:14:16.905Z,100726.84
2022-08-14T05:16:43.580Z,100725.44
2022-08-14T05:19:18.058Z,100733.03
2022-08-14T05:21:59.783Z,100736.97
2022-08-14T05:24:29.465Z,100736.38
2022-08-14T05:26:56.356Z,100737.38
2022-08-14T05:29:23.601Z,100729.84
2022-08-14T05:31:50.471Z,100724.84
2022-08-14T05:34:27.779Z,100713.44
2022-08-14T05:37:01.924Z,100718.44
2022-08-14T05:39:31.275Z,100712.94
2022-08-14T05:41:58.947Z,100716.00
2022-08-14T05:44:30.839Z,100706.81
2022-08-14T05:46:58.891Z,100705.59
2022-08-14T05:49:33.421Z,100703.63
2022-08-14T05:52:02.309Z,100702.16
2022-08-14T05:54:35.683Z,100698.94
2022-08-14T05:57:04.565Z,100699.56
2022-08-14T05:59:39.355Z,100697.34
2022-08-14T06:02:10.801Z,100693.75
2022-08-14T06:04:48.050Z,100700.31
2022-08-14T06:07:16.854Z,100697.59
2022-08-14T06:09:43.703Z,100697.03
2022-08-14T06:12:55.545Z,100698.09
2022-08-14T06:15:08.242Z,100691.97
2022-08-14T06:17:59.237Z,100699.00
2022-08-14T06:20:28.197Z,100681.78
2022-08-14T06:22:56.278Z,100681.00
2022-08-14T06:25:25.084Z,100676.47
2022-08-14T06:27:53.611Z,100677.34
2022-08-14T06:30:30.401Z,100675.81
2022-08-14T06:33:13.682Z,100679.34
2022-08-14T06:35:43.041Z,100668.25
2022-08-14T06:38:19.903Z,100669.13
2022-08-14T06:40:50.670Z,100675.25
2022-08-14T06:43:20.801Z,100671.94
2022-08-14T06:45:53.864Z,100670.88
2022-08-14T06:48:24.210Z,100669.72
2022-08-14T06:50:53.826Z,100654.22
2022-08-14T06:53:22.341Z,100661.88
2022-08-14T06:56:00.578Z,100658.31
2022-08-14T06:58:30.759Z,100661.06
2022-08-14T07:01:23.186Z,100663.94
2022-08-14T07:04:18.855Z,100659.16
2022-08-14T07:06:50.788Z,100660.53
2022-08-14T07:09:23.038Z,100645.72
2022-08-14T07:11:51.552Z,100653.97
2022-08-14T07:14:18.762Z,100653.69
2022-08-14T07:16:45.725Z,100652.94
2022-08-14T07:19:12.546Z,100654.13
2022-08-14T07:21:39.565Z,100658.53
2022-08-14T07:24:09.467Z,100658.06
2022-08-14T07:26:38.737Z,100652.59
2022-08-14T07:29:07.819Z,100657.16
2022-08-14T07:31:34.700Z,100650.56
2022-08-14T07:34:04.101Z,100657.06
2022-08-14T07:36:31.253Z,100662.56
2022-08-14T07:39:03.586Z,100655.59
2022-08-14T07:41:42.406Z,100668.16
2022-08-14T07:44:28.708Z,100659.47
2022-08-14T07:46:58.278Z,100664.06
2022-08-14T07:49:25.647Z,100663.25
2022-08-14T07:51:52.530Z,100665.22
2022-08-14T07:54:23.458Z,100656.66
2022-08-14T07:57:00.630Z,100662.53
2022-08-14T07:59:40.947Z,100663.63
2022-08-14T08:02:19.781Z,100659.34
2022-08-14T08:04:59.028Z,100655.56
2022-08-14T08:07:31.132Z,100651.06
2022-08-14T08:10:00.944Z,100657.47
2022-08-14T08:12:32.453Z,100662.13
2022-08-14T08:15:06.981Z,100660.38
2022-08-14T08:17:42.365Z,100664.72
2022-08-14T08:20:24.624Z,100664.19
2022-08-14T08:22:58.262Z,100664.06
2022-08-14T08:25:39.989Z,100659.44
2022-08-14T08:28:21.828Z,100666.13
2022-08-14T08:31:01.690Z,100655.97
2022-08-14T08:33:39.155Z,100661.63
2022-08-14T08:36:12.482Z,100662.84
2022-08-14T08:39:17.386Z,100662.72
2022-08-14T08:41:27.915Z,100659.97
2022-08-14T08:44:05.769Z,100649.91
2022-08-14T08:46:44.660Z,100646.06
2022-08-14T08:49:14.813Z,100643.66
2022-08-14T08:51:42.924Z,100647.47
2022-08-14T08:54:19.626Z,100645.59
2022-08-14T08:56:51.997Z,100641.72
2022-08-14T08:59:34.433Z,100643.50
2022-08-14T09:02:10.208Z,100644.84
2022-08-14T09:04:45.797Z,100637.50
2022-08-14T09:07:27.201Z,100625.34
2022-08-14T09:09:59.379Z,100631.13
2022-08-14T09:12:33.346Z,100626.50
2022-08-14T09:15:03.437Z,100629.38
2022-08-14T09:17:30.338Z,100626.50
2022-08-14T09:19:58.185Z,100622.03
2022-08-14T09:22:35.963Z,100622.91
2022-08-14T09:25:19.553Z,100618.28
2022-08-14T09:27:46.925Z,100609.47
2022-08-14T09:30:32.954Z,100605.44
2022-08-14T09:33:09.186Z,100607.91
2022-08-14T09:36:51.650Z,100605.16
2022-08-14T09:40:10.884Z,100597.13
2022-08-14T09:43:22.602Z,100584.53
2022-08-14T09:45:53.539Z,100579.78
2022-08-14T09:48:30.681Z,100579.22
2022-08-14T09:54:12.914Z,100570.81
2022-08-14T09:56:31.851Z,100570.22
2022-08-14T09:59:15.158Z,100554.88
2022-08-14T10:01:46.199Z,100561.09
2022-08-14T10:04:35.977Z,100569.34
2022-08-14T10:07:08.182Z,100563.09
2022-08-14T10:10:00.075Z,100555.97
2022-08-14T10:12:52.899Z,100544.38
2022-08-14T10:15:29.920Z,100548.69
2022-08-14T10:18:18.264Z,100543.47
2022-08-14T10:21:04.509Z,100542.59
2022-08-14T10:23:44.365Z,100543.16
2022-08-14T10:26:23.018Z,100539.72
2022-08-14T10:29:20.262Z,100533.09
2022-08-14T10:31:59.363Z,100542.38
2022-08-14T10:34:36.593Z,100530.25
2022-08-14T10:37:14.183Z,100530.97
2022-08-14T10:40:01.373Z,100518.13
2022-08-14T10:42:43.729Z,100521.81
2022-08-14T10:45:25.687Z,100513.69
2022-08-14T10:48:08.677Z,100510.16
2022-08-14T10:50:45.799Z,100516.19
2022-08-14T10:53:14.010Z,100508.13
2022-08-14T10:55:44.907Z,100503.50
2022-08-14T10:58:14.116Z,100501.78
2022-08-14T11:00:56.874Z,100505.22
2022-08-14T11:03:26.672Z,100484.69
2022-08-14T11:06:19.693Z,100491.31
2022-08-14T11:08:48.735Z,100489.56
2022-08-14T11:11:19.381Z,100491.59
2022-08-14T11:13:46.585Z,100484.69
2022-08-14T11:16:15.382Z,100491.47
2022-08-14T11:18:51.316Z,100500.03
2022-08-14T11:21:23.143Z,100485.75
2022-08-14T11:23:53.442Z,100489.66
2022-08-14T11:26:22.668Z,100480.00
2022-08-14T11:28:52.163Z,100472.78
2022-08-14T11:31:24.184Z,100464.53
2022-08-14T11:33:57.610Z,100461.50
2022-08-14T11:37:02.797Z,100462.19
2022-08-14T11:39:33.486Z,100447.47
2022-08-14T11:42:57.101Z,100458.44
2022-08-14T11:44:53.624Z,100464.66
2022-08-14T11:47:24.669Z,100457.44
2022-08-14T11:49:51.852Z,100454.84
2022-08-14T11:52:19.287Z,100448.47
2022-08-14T11:54:58.359Z,100451.06
2022-08-14T11:57:25.847Z,100449.19
2022-08-14T12:00:19.390Z,100438.75
2022-08-14T12:03:03.411Z,100434.13
2022-08-14T12:05:42.204Z,100434.84
2022-08-14T12:08:12.008Z,100443.94
2022-08-14T12:10:43.997Z,100430.94
2022-08-14T12:13:17.474Z,100427.00
2022-08-14T12:15:47.434Z,100425.38
2022-08-14T12:18:29.457Z,100426.47
2022-08-14T12:21:00.067Z,100425.84
2022-08-14T12:23:27.674Z,100422.63
2022-08-14T12:26:39.283Z,100423.16
2022-08-14T12:29:16.070Z,100417.69
2022-08-14T12:31:47.413Z,100407.22
2022-08-14T12:34:20.458Z,100404.66
2022-08-14T12:36:49.897Z,100394.50
2022-08-14T12:39:23.837Z,100390.91
2022-08-14T12:41:57.302Z,100386.19
2022-08-14T12:44:37.311Z,100380.94
2022-08-14T12:47:16.837Z,100378.25
2022-08-14T12:49:57.838Z,100369.94
2022-08-14T12:52:45.347Z,100372.59
2022-08-14T12:55:32.624Z,100368.16
2022-08-14T12:58:28.803Z,100370.94
2022-08-14T13:01:16.054Z,100372.03
2022-08-14T13:03:45.643Z,100358.00
2022-08-14T13:06:14.566Z,100354.13
2022-08-14T13:08:46.453Z,100352.44
2022-08-14T13:11:24.037Z,100342.66
2022-08-14T13:13:58.807Z,100341.31
2022-08-14T13:16:33.797Z,100339.78
2022-08-14T13:19:10.950Z,100334.31
2022-08-14T13:21:58.636Z,100331.03
2022-08-14T13:24:27.692Z,100334.50
2022-08-14T13:26:58.145Z,100327.78
2022-08-14T13:29:29.671Z,100324.06
2022-08-14T13:31:58.695Z,100328.66
2022-08-14T13:34:28.428Z,100307.53
2022-08-14T13:37:03.741Z,100308.22
2022-08-14T13:39:35.923Z,100309.78
2022-08-14T13:42:13.679Z,100293.94
2022-08-14T13:44:42.854Z,100292.91
2022-08-14T13:47:12.023Z,100294.28
2022-08-14T13:49:58.092Z,100290.53
2022-08-14T13:52:51.439Z,100286.75
2022-08-14T13:55:15.571Z,100286.22
2022-08-14T13:57:49.469Z,100281.91
2022-08-14T14:00:21.572Z,100271.75
2022-08-14T14:02:48.849Z,100261.09
2022-08-14T14:05:20.948Z,100263.63
2022-08-14T14:07:53.072Z,100259.84
2022-08-14T14:10:28.046Z,100263.97
2022-08-14T14:12:56.435Z,100257.75
2022-08-14T14:15:33.793Z,100258.78
2022-08-14T14:18:29.670Z,100255.88
2022-08-14T14:20:58.847Z,100255.72
2022-08-14T14:23:26.802Z,100242.47
2022-08-14T14:25:57.439Z,100247.25
2022-08-14T14:28:34.247Z,100250.97
2022-08-14T14:31:05.971Z,100239.75
2022-08-14T14:33:51.083Z,100238.72
2022-08-14T14:36:26.391Z,100235.63
2022-08-14T14:39:03.984Z,100245.44
2022-08-14T14:41:43.722Z,100238.06
2022-08-14T14:44:15.625Z,100223.06
2022-08-14T14:46:50.174Z,100213.78
2022-08-14T14:49:21.660Z,100223.06
2022-08-14T14:51:51.326Z,100223.06
2022-08-14T14:54:31.155Z,100232.03
2022-08-14T14:57:02.542Z,100220.81
2022-08-14T14:59:33.559Z,100218.28
2022-08-14T15:02:06.239Z,100216.69
2022-08-14T15:04:43.822Z,100218.59
2022-08-14T15:07:12.373Z,100222.56
2022-08-14T15:09:39.464Z,100219.31
2022-08-14T15:12:27.954Z,100217.56
2022-08-14T15:14:58.162Z,100212.06
2022-08-14T15:17:40.922Z,100204.47
2022-08-14T15:20:17.376Z,100205.53
2022-08-14T15:23:00.665Z,100199.66
2022-08-14T15:25:31.662Z,100193.81
2022-08-14T15:28:00.771Z,100194.00
2022-08-14T15:30:32.088Z,100184.34
2022-08-14T15:32:59.629Z,100182.13
2022-08-14T15:35:28.061Z,100174.19
2022-08-14T15:38:08.674Z,100174.88
2022-08-14T15:40:40.942Z,100173.47
2022-08-14T15:43:13.331Z,100172.78
2022-08-14T15:45:41.270Z,100168.63
2022-08-14T15:48:12.619Z,100160.69
2022-08-14T15:50:50.803Z,100160.66
2022-08-14T15:53:22.190Z,100151.03
2022-08-14T15:55:54.430Z,100148.97
2022-08-14T15:58:26.181Z,100141.34
2022-08-14T16:01:13.035Z,100151.88
2022-08-14T16:03:42.504Z,100146.19
2022-08-14T16:06:17.626Z,100147.25
2022-08-14T16:08:57.647Z,100147.13
2022-08-14T16:11:25.380Z,100155.41
2022-08-14T16:13:57.614Z,100146.31
2022-08-14T16:16:47.055Z,100148.72
2022-08-14T16:19:19.235Z,100132.38
2022-08-14T16:22:01.586Z,100132.72
2022-08-14T16:25:02.442Z,100127.91
2022-08-14T16:31:51.096Z,100128.25
2022-08-14T16:34:46.244Z,100124.66
2022-08-14T16:37:09.093Z,100127.75
2022-08-14T16:39:41.830Z,100121.41
2022-08-14T16:43:02.399Z,100121.59
2022-08-14T16:45:01.150Z,100122.94
2022-08-14T16:47:35.171Z,100116.03
2022-08-14T16:50:08.904Z,100115.00
2022-08-14T16:52:44.456Z,100115.38
2022-08-14T16:55:21.428Z,100107.94
2022-08-14T16:57:54.932Z,100109.16
2022-08-14T17:00:43.864Z,100113.97
2022-08-14T17:03:16.496Z,100100.94
2022-08-14T17:05:46.685Z,100101.25
2022-08-14T17:08:41.865Z,100097.13
2022-08-14T17:11:11.159Z,100086.63
2022-08-14T17:13:57.832Z,100086.63
2022-08-14T17:16:37.849Z,100087.84
2022-08-14T17:19:14.380Z,100086.44
2022-08-14T17:21:47.058Z,100079.56
2022-08-14T17:24:55.797Z,100081.75
2022-08-14T17:27:08.161Z,100080.38
2022-08-14T17:29:54.528Z,100086.41
2022-08-14T17:32:29.310Z,100075.06
2022-08-14T17:35:16.274Z,100087.75
2022-08-14T17:37:48.348Z,100087.41
2022-08-14T17:40:24.150Z,100084.47
2022-08-14T17:43:00.871Z,100090.28
2022-08-14T17:45:38.843Z,100078.75
2022-08-14T17:49:14.123Z,100084.06
2022-08-14T17:51:15.328Z,100086.59
2022-08-14T17:53:53.600Z,100086.25
2022-08-14T17:56:32.917Z,100085.72
2022-08-14T17:59:05.869Z,100080.72
2022-08-14T18:01:45.850Z,100082.09
2022-08-14T18:04:27.964Z,100085.19
2022-08-14T18:07:16.831Z,100081.88
2022-08-14T18:09:57.250Z,100079.97
2022-08-14T18:12:36.859Z,100080.31
2022-08-14T18:15:17.483Z,100073.38
2022-08-14T18:17:52.742Z,100080.22
2022-08-14T18:21:41.218Z,100077.97
2022-08-14T18:23:13.032Z,100072.97
2022-08-14T18:25:48.653Z,100078.78
2022-08-14T18:28:18.370Z,100080.31
2022-08-14T18:31:22.917Z,100075.59
2022-08-14T18:34:11.973Z,100074.41
2022-08-14T18:36:57.133Z,100072.28
2022-08-14T18:40:02.442Z,100076.50
2022-08-14T18:42:24.405Z,100086.22
2022-08-14T18:45:01.064Z,100082.25
2022-08-14T18:47:30.490Z,100077.25
2022-08-14T18:50:31.066Z,100082.50
2022-08-14T18:53:10.946Z,100080.25
2022-08-14T18:55:52.805Z,100087.22
2022-08-14T18:58:57.183Z,100090.75
2022-08-14T19:01:29.779Z,100087.81
2022-08-14T19:04:00.817Z,100087.38
2022-08-14T19:06:41.953Z,100090.59
2022-08-14T19:09:58.869Z,100088.06
2022-08-14T19:12:53.395Z,100088.72
2022-08-14T19:15:35.983Z,100091.94
2022-08-14T19:18:29.289Z,100091.69
2022-08-14T19:21:13.141Z,100095.59
2022-08-14T19:23:43.910Z,100092.47
2022-08-14T19:26:37.519Z,100098.41
2022-08-14T19:29:37.875Z,100094.38
2022-08-14T19:32:36.506Z,100093.41
2022-08-14T19:35:18.363Z,100092.69
2022-08-14T19:37:54.965Z,100083.91
2022-08-14T19:40:42.685Z,100085.25
2022-08-14T19:43:55.394Z,100085.88
2022-08-14T19:46:39.092Z,100083.59
2022-08-14T19:48:58.097Z,100089.34
2022-08-14T19:51:25.601Z,100080.59
2022-08-14T19:54:13.661Z,100088.94
2022-08-14T19:56:45.651Z,100083.91
2022-08-14T19:59:19.080Z,100089.56
2022-08-14T20:01:52.363Z,100089.84
2022-08-14T20:04:46.085Z,100096.50
2022-08-14T20:07:59.871Z,100090.59
2022-08-14T20:11:06.963Z,100087.16
2022-08-14T20:13:14.285Z,100092.91
2022-08-14T20:15:47.188Z,100082.97
2022-08-14T20:18:32.928Z,100087.00
2022-08-14T20:21:05.188Z,100080.84
2022-08-14T20:23:38.576Z,100081.84
2022-08-14T20:26:30.442Z,100083.16
2022-08-14T20:29:04.448Z,100079.69
2022-08-14T20:31:37.335Z,100087.22
2022-08-14T20:34:19.171Z,100081.00
2022-08-14T20:37:09.843Z,100076.84
2022-08-14T20:39:54.852Z,100086.06
2022-08-14T20:42:43.556Z,100084.63
2022-08-14T20:45:23.516Z,100076.88
2022-08-14T20:48:00.814Z,100078.75
2022-08-14T20:50:29.755Z,100079.06
2022-08-14T20:53:05.985Z,100077.50
2022-08-14T20:55:41.211Z,100069.72
2022-08-14T20:58:41.862Z,100079.22
2022-08-14T21:01:18.283Z,100072.31
2022-08-14T21:03:56.844Z,100073.31
2022-08-14T21:07:23.921Z,100076.31
2022-08-14T21:10:04.667Z,100074.03
2022-08-14T21:12:34.894Z,100071.72
2022-08-14T21:15:11.173Z,100071.16
2022-08-14T21:17:38.392Z,100081.53
2022-08-14T21:20:25.937Z,100068.16
2022-08-14T21:23:00.310Z,100069.31
2022-08-14T21:25:29.007Z,100067.75
2022-08-14T21:28:04.257Z,100066.31
2022-08-14T21:30:51.908Z,100070.03
2022-08-14T21:33:21.532Z,100070.34
2022-08-14T21:35:55.478Z,100063.16
2022-08-14T21:38:33.649Z,100062.56
2022-08-14T21:41:43.556Z,100057.25
2022-08-14T21:44:17.116Z,100049.44
2022-08-14T21:46:54.143Z,100060.81
2022-08-14T21:49:25.481Z,100058.06
2022-08-14T21:52:49.759Z,100062.84
2022-08-14T21:54:58.368Z,100052.19
2022-08-14T21:57:56.237Z,100047.72
2022-08-14T22:00:31.563Z,100051.31
2022-08-14T22:03:09.047Z,100045.16
2022-08-14T22:05:39.709Z,100048.00
2022-08-14T22:08:12.423Z,100039.81
2022-08-14T22:10:44.727Z,100049.00
2022-08-14T22:13:17.512Z,100041.84
2022-08-14T22:15:49.805Z,100036.66
2022-08-14T22:18:20.114Z,100055.78
2022-08-14T22:20:53.847Z,100047.00
2022-08-14T22:23:24.959Z,100047.31
2022-08-14T22:25:53.521Z,100049.31
2022-08-14T22:28:32.933Z,100036.81
2022-08-14T22:31:10.536Z,100041.81
2022-08-14T22:33:39.202Z,100042.97
2022-08-14T22:36:26.343Z,100043.25
2022-08-14T22:38:54.710Z,100039.38
2022-08-14T22:41:26.877Z,100039.81
2022-08-14T22:44:06.526Z,100049.25
2022-08-14T22:46:33.614Z,100047.81
2022-08-14T22:49:15.369Z,100036.44
2022-08-14T22:51:49.352Z,100032.28
2022-08-14T22:54:53.065Z,100034.56
2022-08-14T22:57:05.903Z,100036.84
2022-08-14T22:59:38.982Z,100034.53
2022-08-14T23:02:15.819Z,100032.22
2022-08-14T23:04:54.295Z,100028.03
2022-08-14T23:07:24.985Z,100030.31
2022-08-14T23:10:32.640Z,100030.72
2022-08-14T23:12:54.494Z,100030.38
2022-08-14T23:15:24.395Z,100023.47
2022-08-14T23:17:56.535Z,100027.47
2022-08-14T23:20:23.600Z,100020.56
2022-08-14T23:22:56.864Z,100017.41
2022-08-14T23:25:57.484Z,100013.09
2022-08-14T23:28:33.346Z,100025.41
2022-08-14T23:31:09.231Z,100013.16
2022-08-14T23:33:46.069Z,100004.28
2022-08-14T23:36:31.840Z,100000.09
2022-08-14T23:39:10.528Z,99995.06
2022-08-14T23:41:52.690Z,100003.47
2022-08-14T23:44:23.704Z,100003.75
2022-08-14T23:46:56.612Z,99996.84
2022-08-14T23:49:25.629Z,99990.78
2022-08-14T23:52:49.423Z,99992.78
2022-08-14T23:54:48.208Z,99999.63
2022-08-14T23:57:19.024Z,99988.13
2022-08-14T23:59:54.418Z,99987.53
